createdAt,value
2023-03-15T00:00:48.865Z,101101.97
2023-03-15T00:03:37.300Z,101096.25
2023-03-15T00:06:22.836Z,101104.19
2023-03-15T00:09:08.331Z,101101.00
2023-03-15T00:11:56.288Z,101105.69
2023-03-15T00:14:41.396Z,101114.38
2023-03-15T00:17:26.348Z,101121.38
2023-03-15T00:20:14.755Z,101123.28
2023-03-15T00:22:59.905Z,101123.34
2023-03-15T00:25:46.028Z,101132.94
2023-03-15T00:28:31.219Z,101130.50
2023-03-15T00:31:19.609Z,101126.44
2023-03-15T00:34:04.792Z,101140.13
2023-03-15T00:36:49.860Z,101138.59
2023-03-15T00:39:37.857Z,101144.81
2023-03-15T00:42:27.639Z,101149.16
2023-03-15T00:45:12.760Z,101155.34
2023-03-15T00:47:57.819Z,101158.78
2023-03-15T00:50:43.096Z,101153.94
2023-03-15T00:53:28.065Z,101166.09
2023-03-15T00:56:19.813Z,101166.94
2023-03-15T00:59:04.758Z,101168.13
2023-03-15T01:01:50.034Z,101181.88
2023-03-15T01:04:35.378Z,101178.59
2023-03-15T01:07:21.423Z,101177.88
2023-03-15T01:10:07.184Z,101178.00
2023-03-15T01:12:52.182Z,101183.31
2023-03-15T01:15:37.255Z,101164.81
2023-03-15T01:18:22.516Z,101193.81
2023-03-15T01:21:09.129Z,101192.31
2023-03-15T01:23:55.092Z,101191.56
2023-03-15T01:26:40.990Z,101194.38
2023-03-15T01:29:26.349Z,101188.59
2023-03-15T01:32:11.718Z,101183.59
2023-03-15T01:34:57.240Z,101200.75
2023-03-15T01:37:42.576Z,101201.69
2023-03-15T01:40:27.884Z,101195.13
2023-03-15T01:43:20.805Z,101206.31
2023-03-15T01:46:34.714Z,101209.13
2023-03-15T01:49:31.835Z,101206.72
2023-03-15T01:52:25.436Z,101201.84
2023-03-15T01:55:15.108Z,101201.09
2023-03-15T01:58:01.123Z,101224.38
2023-03-15T02:00:46.768Z,101224.38
2023-03-15T02:03:46.765Z,101217.78
2023-03-15T02:06:34.942Z,101245.38
2023-03-15T02:09:22.150Z,101241.28
2023-03-15T02:12:08.988Z,101243.84
2023-03-15T02:14:54.755Z,101230.09
2023-03-15T02:17:45.903Z,101242.19
2023-03-15T02:21:15.842Z,101242.28
2023-03-15T02:24:34.743Z,101250.16
2023-03-15T02:27:27.096Z,101221.25
2023-03-15T02:30:12.726Z,101235.69
2023-03-15T02:33:00.075Z,101249.25
2023-03-15T02:35:45.588Z,101243.22
2023-03-15T02:38:30.938Z,101242.47
2023-03-15T02:41:26.547Z,101249.41
2023-03-15T02:44:16.253Z,101240.00
2023-03-15T02:47:13.971Z,101253.84
2023-03-15T02:49:59.236Z,101232.53
2023-03-15T02:52:44.585Z,101237.63
2023-03-15T02:55:32.734Z,101254.91
2023-03-15T02:58:17.816Z,101258.44
2023-03-15T03:01:03.191Z,101245.88
2023-03-15T03:03:48.588Z,101256.81
2023-03-15T03:06:33.872Z,101251.81
2023-03-15T03:09:19.094Z,101253.44
2023-03-15T03:12:04.482Z,101251.50
2023-03-15T03:14:49.659Z,101255.25
2023-03-15T03:17:37.471Z,101263.19
2023-03-15T03:20:22.519Z,101263.44
2023-03-15T03:23:07.710Z,101254.06
2023-03-15T03:25:57.365Z,101259.38
2023-03-15T03:28:44.842Z,101254.22
2023-03-15T03:31:29.857Z,101260.41
2023-03-15T03:34:15.734Z,101255.44
2023-03-15T03:37:01.091Z,101267.50
2023-03-15T03:39:46.310Z,101268.53
2023-03-15T03:42:31.522Z,101265.31
2023-03-15T03:45:16.809Z,101272.28
2023-03-15T03:48:01.915Z,101288.75
2023-03-15T03:50:47.211Z,101299.25
2023-03-15T03:53:32.158Z,101301.94
2023-03-15T03:56:17.214Z,101304.53
2023-03-15T03:59:02.287Z,101303.91
2023-03-15T04:01:48.309Z,101322.69
2023-03-15T04:04:33.461Z,101332.34
2023-03-15T04:07:18.637Z,101345.13
2023-03-15T04:10:04.503Z,101339.97
2023-03-15T04:12:49.505Z,101333.09
2023-03-15T04:15:34.811Z,101341.69
2023-03-15T04:18:19.714Z,101331.41
2023-03-15T04:21:04.948Z,101337.38
2023-03-15T04:23:50.141Z,101333.19
2023-03-15T04:26:35.460Z,101328.91
2023-03-15T04:29:21.547Z,101333.25
2023-03-15T04:32:07.016Z,101333.31
2023-03-15T04:34:52.044Z,101313.75
2023-03-15T04:37:37.157Z,101320.44
2023-03-15T04:40:24.168Z,101329.06
2023-03-15T04:43:09.659Z,101328.19
2023-03-15T04:45:54.521Z,101324.75
2023-03-15T04:48:39.699Z,101317.19
2023-03-15T04:51:24.887Z,101330.69
2023-03-15T04:54:09.881Z,101328.09
2023-03-15T04:56:54.972Z,101328.09
2023-03-15T04:59:40.029Z,101321.19
2023-03-15T05:02:25.085Z,101328.09
2023-03-15T05:05:12.521Z,101323.78
2023-03-15T05:07:57.791Z,101328.94
2023-03-15T05:10:43.009Z,101327.28
2023-03-15T05:13:28.439Z,101307.28
2023-03-15T05:16:13.780Z,101343.38
2023-03-15T05:18:59.248Z,101344.38
2023-03-15T05:21:44.561Z,101340.22
2023-03-15T05:24:30.365Z,101338.59
2023-03-15T05:27:15.286Z,101348.84
2023-03-15T05:30:04.167Z,101353.03
2023-03-15T05:32:49.083Z,101352.03
2023-03-15T05:35:34.104Z,101353.69
2023-03-15T05:38:19.406Z,101360.78
2023-03-15T05:41:04.828Z,101361.75
2023-03-15T05:43:51.229Z,101355.91
2023-03-15T05:46:36.131Z,101353.69
2023-03-15T05:49:21.451Z,101366.84
2023-03-15T05:52:06.722Z,101362.59
2023-03-15T05:54:52.143Z,101369.34
2023-03-15T05:57:37.527Z,101370.19
2023-03-15T06:00:23.084Z,101380.53
2023-03-15T06:03:08.184Z,101379.69
2023-03-15T06:05:53.951Z,101386.66
2023-03-15T06:08:39.269Z,101392.78
2023-03-15T06:11:24.663Z,101397.03
2023-03-15T06:14:09.869Z,101402.25
2023-03-15T06:16:55.048Z,101385.34
2023-03-15T06:19:40.120Z,101405.06
2023-03-15T06:22:25.212Z,101415.41
2023-03-15T06:25:10.639Z,101418.03
2023-03-15T06:27:55.769Z,101426.63
2023-03-15T06:30:41.689Z,101424.03
2023-03-15T06:33:27.135Z,101431.81
2023-03-15T06:36:12.914Z,101433.56
2023-03-15T06:38:57.901Z,101439.56
2023-03-15T06:41:43.219Z,101443.84
2023-03-15T06:44:28.919Z,101438.78
2023-03-15T06:47:14.097Z,101437.81
2023-03-15T06:49:59.436Z,101448.03
2023-03-15T06:52:44.463Z,101454.88
2023-03-15T06:55:29.475Z,101452.28
2023-03-15T06:58:14.741Z,101459.91
2023-03-15T07:00:59.957Z,101453.84
2023-03-15T07:03:45.222Z,101428.88
2023-03-15T07:06:30.404Z,101444.91
2023-03-15T07:09:15.545Z,101448.25
2023-03-15T07:12:00.591Z,101434.66
2023-03-15T07:14:46.657Z,101447.22
2023-03-15T07:17:31.787Z,101427.59
2023-03-15T07:20:17.382Z,101432.59
2023-03-15T07:23:03.254Z,101454.56
2023-03-15T07:25:55.085Z,101456.94
2023-03-15T07:28:40.375Z,101473.28
2023-03-15T07:31:25.349Z,101476.69
2023-03-15T07:34:10.676Z,101460.44
2023-03-15T07:36:56.183Z,101469.72
2023-03-15T07:39:41.519Z,101473.91
2023-03-15T07:42:26.811Z,101484.06
2023-03-15T07:45:12.400Z,101483.72
2023-03-15T07:47:57.541Z,101485.03
2023-03-15T07:50:42.789Z,101495.78
2023-03-15T07:53:28.317Z,101486.97
2023-03-15T07:56:13.567Z,101490.22
2023-03-15T07:59:00.893Z,101486.56
2023-03-15T08:01:45.874Z,101476.94
2023-03-15T08:04:31.672Z,101487.66
2023-03-15T08:07:17.527Z,101484.13
2023-03-15T08:10:06.311Z,101492.44
2023-03-15T08:12:51.526Z,101478.41
2023-03-15T08:15:37.149Z,101482.19
2023-03-15T08:18:22.090Z,101492.16
2023-03-15T08:21:07.373Z,101484.06
2023-03-15T08:23:52.662Z,101492.53
2023-03-15T08:26:37.958Z,101486.41
2023-03-15T08:29:23.209Z,101488.00
2023-03-15T08:32:08.854Z,101480.94
2023-03-15T08:34:53.780Z,101476.59
2023-03-15T08:37:40.196Z,101489.94
2023-03-15T08:40:25.346Z,101498.34
2023-03-15T08:43:10.908Z,101489.34
2023-03-15T08:46:02.926Z,101482.50
2023-03-15T08:48:48.307Z,101493.59
2023-03-15T08:51:33.857Z,101501.75
2023-03-15T08:54:18.936Z,101494.38
2023-03-15T08:57:04.551Z,101501.66
2023-03-15T08:59:50.148Z,101504.81
2023-03-15T09:02:36.565Z,101490.84
2023-03-15T09:05:25.022Z,101497.25
2023-03-15T09:08:10.817Z,101497.94
2023-03-15T09:10:57.387Z,101490.94
2023-03-15T09:13:42.619Z,101487.13
2023-03-15T09:16:27.714Z,101491.16
2023-03-15T09:19:13.426Z,101490.22
2023-03-15T09:22:10.787Z,101501.44
2023-03-15T09:25:04.660Z,101486.50
2023-03-15T09:27:50.227Z,101492.13
2023-03-15T09:30:36.717Z,101487.38
2023-03-15T09:33:22.520Z,101493.84
2023-03-15T09:36:07.834Z,101485.53
2023-03-15T09:38:52.865Z,101485.91
2023-03-15T09:41:43.833Z,101493.47
2023-03-15T09:44:44.566Z,101492.25
2023-03-15T09:47:55.711Z,101492.97
2023-03-15T09:51:06.109Z,101497.00
2023-03-15T09:54:03.805Z,101487.13
2023-03-15T09:57:14.717Z,101497.13
2023-03-15T10:00:02.550Z,101490.16
2023-03-15T10:03:00.731Z,101498.44
2023-03-15T10:05:50.046Z,101502.88
2023-03-15T10:08:35.380Z,101489.78
2023-03-15T10:11:47.932Z,101493.19
2023-03-15T10:14:46.960Z,101497.28
2023-03-15T10:17:44.985Z,101502.59
2023-03-15T10:20:34.683Z,101502.50
2023-03-15T10:23:23.472Z,101499.75
2023-03-15T10:26:14.727Z,101505.97
2023-03-15T10:29:03.875Z,101496.34
2023-03-15T10:31:51.930Z,101487.38
2023-03-15T10:34:36.832Z,101506.66
2023-03-15T10:37:23.728Z,101492.38
2023-03-15T10:40:15.945Z,101502.41
2023-03-15T10:43:01.108Z,101500.06
2023-03-15T10:46:11.674Z,101485.13
2023-03-15T10:49:09.575Z,101497.81
2023-03-15T10:51:58.277Z,101480.75
2023-03-15T10:54:44.943Z,101502.84
2023-03-15T10:57:35.264Z,101502.63
2023-03-15T11:00:32.455Z,101503.75
2023-03-15T11:03:27.597Z,101504.38
2023-03-15T11:06:22.650Z,101508.63
2023-03-15T11:09:19.307Z,101513.50
2023-03-15T11:12:06.835Z,101516.59
2023-03-15T11:15:16.446Z,101530.44
2023-03-15T11:18:01.476Z,101518.31
2023-03-15T11:20:46.995Z,101519.50
2023-03-15T11:23:36.764Z,101504.63
2023-03-15T11:26:33.612Z,101509.91
2023-03-15T11:29:26.786Z,101496.56
2023-03-15T11:32:19.204Z,101483.91
2023-03-15T11:35:15.921Z,101480.50
2023-03-15T11:38:15.355Z,101489.50
2023-03-15T11:41:05.132Z,101493.75
2023-03-15T11:44:13.942Z,101498.69
2023-03-15T11:47:05.367Z,101498.31
2023-03-15T11:49:55.463Z,101497.56
2023-03-15T11:52:41.355Z,101490.13
2023-03-15T11:55:28.771Z,101499.22
2023-03-15T11:58:44.556Z,101494.31
2023-03-15T12:01:29.834Z,101505.84
2023-03-15T12:04:33.231Z,101500.72
2023-03-15T12:07:18.876Z,101496.31
2023-03-15T12:10:04.340Z,101490.94
2023-03-15T12:12:58.978Z,101509.78
2023-03-15T12:15:47.395Z,101484.19
2023-03-15T12:18:42.130Z,101497.00
2023-03-15T12:21:44.266Z,101496.19
2023-03-15T12:24:36.131Z,101482.16
2023-03-15T12:27:21.690Z,101489.41
2023-03-15T12:30:16.954Z,101479.09
2023-03-15T12:33:03.316Z,101462.94
2023-03-15T12:35:49.749Z,101467.06
2023-03-15T12:38:43.338Z,101449.84
2023-03-15T12:41:43.826Z,101459.66
2023-03-15T12:44:32.017Z,101448.31
2023-03-15T12:47:17.060Z,101439.22
2023-03-15T12:50:42.309Z,101462.38
2023-03-15T12:53:38.292Z,101454.66
2023-03-15T12:56:34.185Z,101446.56
2023-03-15T12:59:35.273Z,101437.63
2023-03-15T13:02:41.797Z,101431.22
2023-03-15T13:05:36.301Z,101425.31
2023-03-15T13:08:30.146Z,101417.97
2023-03-15T13:11:35.633Z,101410.47
2023-03-15T13:14:49.063Z,101425.88
2023-03-15T13:17:52.195Z,101419.72
2023-03-15T13:20:42.414Z,101424.47
2023-03-15T13:23:30.026Z,101418.72
2023-03-15T13:26:34.038Z,101418.47
2023-03-15T13:29:30.167Z,101416.53
2023-03-15T13:32:17.729Z,101424.94
2023-03-15T13:35:03.837Z,101426.28
2023-03-15T13:37:48.958Z,101422.22
2023-03-15T13:40:34.342Z,101422.66
2023-03-15T13:43:19.975Z,101419.16
2023-03-15T13:46:06.046Z,101423.53
2023-03-15T13:48:53.518Z,101417.53
2023-03-15T13:51:40.049Z,101414.91
2023-03-15T13:54:33.613Z,101396.16
2023-03-15T13:57:22.131Z,101400.06
2023-03-15T14:00:17.601Z,101402.28
2023-03-15T14:03:07.138Z,101404.97
2023-03-15T14:05:55.351Z,101400.69
2023-03-15T14:08:41.075Z,101396.28
2023-03-15T14:11:26.398Z,101384.06
2023-03-15T14:14:31.756Z,101370.53
2023-03-15T14:17:28.735Z,101368.88
2023-03-15T14:20:17.456Z,101358.41
2023-03-15T14:23:06.424Z,101356.63
2023-03-15T14:26:01.916Z,101361.41
2023-03-15T14:28:54.117Z,101355.81
2023-03-15T14:31:46.057Z,101350.13
2023-03-15T14:34:43.674Z,101354.97
2023-03-15T14:37:43.521Z,101359.19
2023-03-15T14:40:34.964Z,101353.97
2023-03-15T14:43:20.691Z,101354.97
2023-03-15T14:46:07.321Z,101347.22
2023-03-15T14:48:52.907Z,101346.13
2023-03-15T14:51:38.160Z,101346.22
2023-03-15T14:54:24.083Z,101351.53
2023-03-15T14:57:09.495Z,101347.69
2023-03-15T14:59:55.032Z,101348.53
2023-03-15T15:02:40.960Z,101337.91
2023-03-15T15:05:32.248Z,101335.38
2023-03-15T15:08:22.415Z,101335.00
2023-03-15T15:11:11.341Z,101328.78
2023-03-15T15:13:57.836Z,101331.41
2023-03-15T15:16:43.551Z,101328.63
2023-03-15T15:19:28.642Z,101310.50
2023-03-15T15:22:14.430Z,101318.78
2023-03-15T15:24:59.440Z,101322.31
2023-03-15T15:27:45.080Z,101301.81
2023-03-15T15:30:31.347Z,101313.72
2023-03-15T15:33:16.449Z,101317.16
2023-03-15T15:36:02.332Z,101311.47
2023-03-15T15:38:47.745Z,101299.97
2023-03-15T15:41:33.086Z,101298.97
2023-03-15T15:44:21.940Z,101294.75
2023-03-15T15:47:07.088Z,101285.75
2023-03-15T15:49:52.297Z,101287.16
2023-03-15T15:52:40.979Z,101285.31
2023-03-15T15:55:31.024Z,101287.59
2023-03-15T15:58:17.500Z,101280.53
2023-03-15T16:01:03.718Z,101284.53
2023-03-15T16:03:49.413Z,101286.91
2023-03-15T16:06:36.214Z,101278.88
2023-03-15T16:09:22.993Z,101275.44
2023-03-15T16:12:16.022Z,101270.38
2023-03-15T16:15:01.346Z,101279.53
2023-03-15T16:17:46.927Z,101264.22
2023-03-15T16:20:32.082Z,101282.66
2023-03-15T16:23:21.905Z,101274.22
2023-03-15T16:26:07.178Z,101280.75
2023-03-15T16:28:52.396Z,101278.25
2023-03-15T16:31:37.283Z,101282.69
2023-03-15T16:34:23.651Z,101258.44
2023-03-15T16:37:18.006Z,101272.78
2023-03-15T16:40:09.932Z,101274.69
2023-03-15T16:42:56.060Z,101269.63
2023-03-15T16:45:41.417Z,101268.63
2023-03-15T16:48:26.736Z,101265.03
2023-03-15T16:51:14.582Z,101262.41
2023-03-15T16:54:14.929Z,101266.78
2023-03-15T16:57:03.242Z,101259.28
2023-03-15T16:59:48.556Z,101264.66
2023-03-15T17:02:33.930Z,101257.56
2023-03-15T17:05:20.757Z,101253.66
2023-03-15T17:08:06.083Z,101253.66
2023-03-15T17:10:51.411Z,101247.03
2023-03-15T17:13:40.784Z,101256.50
2023-03-15T17:16:26.421Z,101253.19
2023-03-15T17:19:13.396Z,101230.31
2023-03-15T17:21:59.052Z,101243.81
2023-03-15T17:24:44.512Z,101249.03
2023-03-15T17:27:50.687Z,101242.06
2023-03-15T17:30:37.148Z,101238.84
2023-03-15T17:33:25.940Z,101228.69
2023-03-15T17:36:16.571Z,101239.91
2023-03-15T17:39:02.778Z,101240.75
2023-03-15T17:41:48.355Z,101228.31
2023-03-15T17:44:33.796Z,101232.31
2023-03-15T17:47:19.147Z,101237.53
2023-03-15T17:50:04.780Z,101227.94
2023-03-15T17:52:55.237Z,101236.66
2023-03-15T17:55:40.750Z,101235.69
2023-03-15T17:58:27.363Z,101227.00
2023-03-15T18:01:19.681Z,101227.00
2023-03-15T18:04:09.595Z,101221.41
2023-03-15T18:06:55.359Z,101218.66
2023-03-15T18:09:40.795Z,101197.38
2023-03-15T18:12:25.761Z,101207.59
2023-03-15T18:15:14.119Z,101214.28
2023-03-15T18:17:59.038Z,101225.72
2023-03-15T18:20:45.342Z,101217.88
2023-03-15T18:23:30.657Z,101213.56
2023-03-15T18:26:17.337Z,101219.66
2023-03-15T18:29:02.247Z,101232.81
2023-03-15T18:31:47.488Z,101225.94
2023-03-15T18:34:32.728Z,101225.31
2023-03-15T18:37:17.922Z,101223.53
2023-03-15T18:40:03.429Z,101219.09
2023-03-15T18:42:48.353Z,101217.41
2023-03-15T18:45:36.197Z,101216.63
2023-03-15T18:48:34.145Z,101200.53
2023-03-15T18:51:25.968Z,101212.47
2023-03-15T18:54:11.019Z,101195.31
2023-03-15T18:56:56.529Z,101205.53
2023-03-15T18:59:41.927Z,101207.34
2023-03-15T19:02:27.628Z,101207.25
2023-03-15T19:05:14.300Z,101203.91
2023-03-15T19:07:59.929Z,101205.59
2023-03-15T19:10:46.888Z,101202.13
2023-03-15T19:13:32.236Z,101202.91
2023-03-15T19:16:19.020Z,101196.81
2023-03-15T19:19:04.117Z,101190.09
2023-03-15T19:21:49.352Z,101187.31
2023-03-15T19:24:36.280Z,101182.41
2023-03-15T19:27:21.467Z,101187.47
2023-03-15T19:30:09.187Z,101179.03
2023-03-15T19:32:55.381Z,101175.66
2023-03-15T19:35:43.489Z,101169.44
2023-03-15T19:38:29.514Z,101166.00
2023-03-15T19:41:14.848Z,101140.66
2023-03-15T19:44:00.111Z,101160.78
2023-03-15T19:46:45.548Z,101157.56
2023-03-15T19:49:30.894Z,101154.16
2023-03-15T19:52:16.250Z,101139.00
2023-03-15T19:55:01.869Z,101152.66
2023-03-15T19:57:47.716Z,101149.09
2023-03-15T20:00:32.964Z,101145.50
2023-03-15T20:03:18.127Z,101152.66
2023-03-15T20:06:08.800Z,101154.41
2023-03-15T20:08:54.001Z,101138.31
2023-03-15T20:11:39.163Z,101145.97
2023-03-15T20:14:24.241Z,101154.78
2023-03-15T20:17:09.430Z,101141.28
2023-03-15T20:19:55.102Z,101147.13
2023-03-15T20:22:42.964Z,101140.97
2023-03-15T20:25:28.310Z,101131.53
2023-03-15T20:28:13.495Z,101134.09
2023-03-15T20:30:59.127Z,101128.78
2023-03-15T20:33:47.682Z,101133.09
2023-03-15T20:36:33.558Z,101132.22
2023-03-15T20:39:19.371Z,101131.53
2023-03-15T20:42:04.539Z,101120.56
2023-03-15T20:44:50.452Z,101134.13
2023-03-15T20:47:35.945Z,101115.47
2023-03-15T20:50:21.249Z,101120.69
2023-03-15T20:53:06.850Z,101110.38
2023-03-15T20:55:52.483Z,101126.63
2023-03-15T20:58:37.578Z,101131.69
2023-03-15T21:01:22.632Z,101130.69
2023-03-15T21:04:08.003Z,101118.72
2023-03-15T21:06:53.155Z,101105.94
2023-03-15T21:09:38.538Z,101124.75
2023-03-15T21:12:23.892Z,101108.44
2023-03-15T21:15:09.656Z,101120.28
2023-03-15T21:17:54.962Z,101119.50
2023-03-15T21:20:40.224Z,101112.50
2023-03-15T21:23:33.020Z,101105.69
2023-03-15T21:26:18.477Z,101113.50
2023-03-15T21:29:04.914Z,101105.63
2023-03-15T21:31:50.000Z,101104.78
2023-03-15T21:34:35.404Z,101101.41
2023-03-15T21:37:20.644Z,101087.75
2023-03-15T21:40:06.925Z,101097.97
2023-03-15T21:42:52.001Z,101094.22
2023-03-15T21:45:37.565Z,101086.38
2023-03-15T21:48:23.065Z,101072.44
2023-03-15T21:51:08.848Z,101066.44
2023-03-15T21:53:53.860Z,101069.97
2023-03-15T21:56:39.761Z,101059.56
2023-03-15T21:59:27.870Z,101068.22
2023-03-15T22:02:14.249Z,101062.00
2023-03-15T22:04:59.690Z,101065.75
2023-03-15T22:07:44.761Z,101047.59
2023-03-15T22:10:30.041Z,101050.81
2023-03-15T22:13:15.234Z,101050.91
2023-03-15T22:16:01.372Z,101049.28
2023-03-15T22:18:46.635Z,101034.97
2023-03-15T22:21:31.633Z,101038.09
2023-03-15T22:24:16.988Z,101034.59
2023-03-15T22:27:02.405Z,101026.50
2023-03-15T22:29:47.529Z,101031.72
2023-03-15T22:32:32.866Z,101024.00
2023-03-15T22:35:18.344Z,101022.38
2023-03-15T22:38:10.049Z,101026.75
2023-03-15T22:41:03.609Z,101011.97
2023-03-15T22:43:48.624Z,100987.13
2023-03-15T22:46:35.269Z,100992.94
2023-03-15T22:49:20.664Z,101003.00
2023-03-15T22:52:06.252Z,100986.66
2023-03-15T22:54:51.270Z,100983.81
2023-03-15T22:57:36.389Z,100990.75
2023-03-15T23:00:22.447Z,100990.63
2023-03-15T23:03:08.071Z,100994.09
2023-03-15T23:05:54.977Z,100991.56
2023-03-15T23:08:39.842Z,100983.13
2023-03-15T23:11:24.906Z,100994.09
2023-03-15T23:14:10.241Z,100993.19
2023-03-15T23:16:55.480Z,100994.09
2023-03-15T23:19:41.542Z,100983.81
2023-03-15T23:22:26.980Z,100981.06
2023-03-15T23:25:13.756Z,100974.84
2023-03-15T23:27:59.145Z,100969.72
2023-03-15T23:30:45.691Z,100963.69
2023-03-15T23:33:34.179Z,100972.34
2023-03-15T23:36:19.349Z,100962.81
2023-03-15T23:39:05.452Z,100940.50
2023-03-15T23:41:51.421Z,100950.66
2023-03-15T23:44:36.816Z,100925.47
2023-03-15T23:47:23.900Z,100922.03
2023-03-15T23:50:10.249Z,100907.63
2023-03-15T23:52:56.268Z,100909.78
2023-03-15T23:55:44.588Z,100927.25
2023-03-15T23:58:29.933Z,100915.16
